Disclaimer

Please do not use the information listed here in-flight or in-navigation, as they are not provided to us by the airports but are provided by volunteers, so they might be outdated.

Search


Regions


Airport information page

Radio informations:
RDO - 125.9 MHz

Airport informations:
Latitude: 05° 22' 06.92" S
Longitude: 049° 08' 16.89" W
Elevation: 357 feet - 109 meters
Operating hours: Remarks
Operating agency: Civil government, landing fees and diplomatic clearance may be required
Timezone: UTC-3(-2DT)
Fuel: Jet A1, without icing nhibitor.

Runway information:
07/25 - 6562 x 148 feet< - >2000 x 45 meters

Recent METARs:
SBMA 202000Z 34006KT 9999 SCT027 FEW033TCU 31/24 Q1007
SBMA 202000Z 34006KT 9999 SCT027 FEW033TCU 31/24 Q1007
SBMA 202100Z 31005KT 9999 FEW027 FEW030TCU 29/23 Q1008

Airport on the map: